createdAt,value
2023-05-12T11:18:20.590Z,13853.0000
2023-05-12T11:19:22.366Z,13816.6152
2023-05-12T11:20:24.322Z,13769.5381
2023-05-12T11:21:26.224Z,13748.7695
2023-05-12T11:22:28.253Z,13744.4619
2023-05-12T11:46:50.653Z,13925.4170
2023-05-12T11:47:52.566Z,13859.8457
2023-05-12T11:48:54.447Z,13852.9229
2023-05-12T11:49:56.424Z,13837.0000
2023-05-12T11:50:58.289Z,13831.9229
2023-05-12T11:52:00.190Z,13830.2305
2023-05-12T11:53:02.129Z,13799.3076
2023-05-12T11:54:04.041Z,13787.5381
2023-05-12T11:55:06.189Z,13787.8457
2023-05-12T11:56:07.897Z,13783.3848
2023-05-12T11:57:09.800Z,13779.0000
2023-05-12T11:58:11.725Z,13774.3848
2023-05-12T11:59:13.655Z,13714.3076
2023-05-12T12:00:15.574Z,13728.0000
2023-05-12T12:01:17.600Z,13737.7695
2023-05-12T12:02:19.466Z,13745.3848
2023-05-12T12:03:21.481Z,13738.7695
2023-05-12T12:04:23.285Z,13733.7695
2023-05-12T12:05:25.177Z,13746.3848
2023-05-12T12:06:27.159Z,13747.9229
2023-05-12T12:07:29.000Z,13748.0000
2023-05-12T12:08:30.941Z,13746.8457
2023-05-12T12:09:32.850Z,13738.2305
2023-05-12T12:10:34.751Z,13708.6924
2023-05-12T12:11:36.667Z,13716.5381
2023-05-12T12:12:38.752Z,13717.5381
2023-05-12T12:13:40.506Z,13720.2305
2023-05-12T12:14:42.467Z,13734.5381
2023-05-12T12:15:44.376Z,13737.7695
2023-05-12T12:16:46.270Z,13722.9229
2023-05-12T12:17:48.475Z,13734.7695
2023-05-12T12:18:50.139Z,13743.2305
2023-05-12T12:19:52.020Z,13741.5381
2023-05-12T12:20:53.951Z,13738.3076
2023-05-12T12:21:55.866Z,13739.0000
2023-05-12T12:22:57.782Z,13734.6924
2023-05-12T12:23:59.808Z,13752.5381
2023-05-12T12:25:01.605Z,13749.8457
2023-05-12T12:26:03.544Z,13743.8457
2023-05-12T12:27:05.454Z,13666.1543
2023-05-12T12:28:07.369Z,13699.5381
2023-05-12T12:29:09.291Z,13688.2305
2023-05-12T12:30:11.433Z,13712.9229
2023-05-12T12:31:13.113Z,13716.3848
2023-05-12T12:32:15.056Z,13710.8457
2023-05-12T12:33:19.649Z,13680.8457
2023-05-12T12:34:18.868Z,13668.3848
2023-05-12T12:35:21.019Z,13680.0771
2023-05-12T12:36:22.846Z,13681.3076
2023-05-12T12:37:24.634Z,13671.2305
2023-05-12T12:38:26.546Z,13678.8457
2023-05-12T12:39:28.480Z,13677.0771
2023-05-12T12:40:30.392Z,13689.9229
2023-05-12T12:41:32.305Z,13706.3076
2023-05-12T12:42:34.369Z,13708.2305
2023-05-12T12:43:36.144Z,13718.4619
2023-05-12T12:44:38.064Z,13717.4619
2023-05-12T12:45:39.996Z,13725.2305
2023-05-12T12:46:41.957Z,13725.5381
2023-05-12T12:47:43.869Z,13723.7695
2023-05-12T12:48:45.860Z,13732.5381
2023-05-12T12:49:47.665Z,13739.7695
2023-05-12T12:50:49.592Z,13757.7695
2023-05-12T12:51:51.510Z,13759.6924
2023-05-12T12:52:53.440Z,13766.4619
2023-05-12T12:53:55.349Z,13769.1543
2023-05-12T12:54:57.365Z,13775.4619
2023-05-12T12:55:59.173Z,13781.6152
2023-05-12T12:57:01.105Z,13777.0000
2023-05-12T12:58:03.011Z,13774.6924
2023-05-12T12:59:04.947Z,13775.2305
2023-05-12T13:00:06.970Z,13709.6924
2023-05-12T13:01:08.808Z,13671.0000
2023-05-12T13:02:10.723Z,13689.0771
2023-05-12T13:03:12.638Z,13714.5381
2023-05-12T13:04:14.519Z,13717.2305
2023-05-12T13:05:16.515Z,13725.4619
2023-05-12T13:06:18.474Z,13712.5381
2023-05-12T13:07:20.275Z,13712.0771
2023-05-12T13:08:22.204Z,13722.0000
2023-05-12T13:09:24.122Z,13733.1543
2023-05-12T13:10:26.048Z,13743.0771
2023-05-12T13:11:28.068Z,13749.4619
2023-05-12T13:12:29.873Z,13750.4619
2023-05-12T13:13:31.781Z,13758.0771
2023-05-12T13:14:33.706Z,13767.9229
2023-05-12T13:15:35.621Z,13763.0000
2023-05-12T13:16:37.557Z,13774.0000
2023-05-12T13:17:39.588Z,13778.5381
2023-05-12T13:18:41.425Z,13784.0771
2023-05-12T13:19:43.302Z,13781.5381
2023-05-12T13:20:45.233Z,13789.6152
2023-05-12T13:21:47.137Z,13781.4619
2023-05-12T13:22:49.062Z,13782.0000
2023-05-12T13:23:51.127Z,13791.0000
2023-05-12T13:24:52.899Z,13786.0000
2023-05-12T13:25:54.800Z,13785.1543
2023-05-12T13:26:56.745Z,13785.9229
2023-05-12T13:27:58.640Z,13786.7695
2023-05-12T13:29:00.567Z,13747.3076
2023-05-12T13:30:02.597Z,13796.5381
2023-05-12T13:31:04.438Z,13800.5381
2023-05-12T13:32:06.323Z,13799.7695
2023-05-12T13:33:08.307Z,13792.2305
2023-05-12T13:34:10.169Z,13792.0000
2023-05-12T13:35:12.071Z,13792.3848
2023-05-12T13:36:14.104Z,13796.0000
2023-05-12T13:37:15.922Z,13794.5381
2023-05-12T13:38:17.831Z,13797.1543
2023-05-12T13:39:19.911Z,13795.5381
2023-05-12T13:40:21.659Z,13786.0000
2023-05-12T13:41:23.626Z,13785.4619
2023-05-12T13:42:25.608Z,13787.8457
2023-05-12T13:43:27.431Z,13786.1543
2023-05-12T13:44:29.332Z,13782.5381
2023-05-12T13:45:31.270Z,13776.2305
2023-05-12T13:46:33.225Z,13769.1543
2023-05-12T13:47:35.137Z,13784.7695
2023-05-12T13:48:37.159Z,13768.9229
2023-05-12T13:49:38.929Z,13778.6924
2023-05-12T13:50:40.859Z,13778.9229
2023-05-12T13:51:42.768Z,13778.4619
2023-05-12T13:52:44.669Z,13778.6152
2023-05-12T13:53:46.607Z,13775.8457
2023-05-12T13:54:48.625Z,13762.9229
2023-05-12T13:55:50.500Z,13774.5381
2023-05-12T13:56:52.335Z,13777.6152
2023-05-12T13:57:54.250Z,13771.3076
2023-05-12T13:58:56.191Z,13780.6152
2023-05-12T13:59:58.219Z,13779.8457
2023-05-12T14:01:00.007Z,13771.4619
2023-05-12T14:02:02.099Z,13767.6152
2023-05-12T14:03:03.904Z,13762.0771
2023-05-12T14:04:05.781Z,13734.1543
2023-05-12T14:05:07.797Z,13658.1543
2023-05-12T14:06:09.731Z,13674.1543
2023-05-12T14:07:11.525Z,13699.5381
2023-05-12T14:08:13.426Z,13720.2305
2023-05-12T14:09:15.372Z,13740.2305
2023-05-12T14:10:17.272Z,13748.3848
2023-05-12T14:11:19.266Z,13744.6924
2023-05-12T14:12:21.739Z,13730.9229
2023-05-12T14:13:23.021Z,13733.6924
2023-05-12T14:14:24.962Z,13742.9229
2023-05-12T14:15:40.103Z,13736.5381
2023-05-12T14:16:28.804Z,13752.0000
2023-05-12T14:17:30.863Z,13763.9229
2023-05-12T14:18:32.661Z,13773.0000
2023-05-12T14:19:34.547Z,13761.6924
2023-05-12T14:20:36.451Z,13771.4619
2023-05-12T14:21:38.392Z,13781.6152
2023-05-12T14:22:40.307Z,13787.0771
2023-05-12T14:23:42.335Z,13728.0771
2023-05-12T14:24:44.127Z,13720.6924
2023-05-12T14:25:46.070Z,13766.0000
2023-05-12T14:26:48.048Z,13776.0000
2023-05-12T14:27:50.123Z,13797.5381
2023-05-12T14:28:51.820Z,13800.2305
2023-05-12T14:29:53.898Z,13810.6152
2023-05-12T14:30:55.673Z,13818.7695
2023-05-12T14:31:57.638Z,13829.6924
2023-05-12T14:32:59.528Z,13835.3076
2023-05-12T14:34:01.436Z,13840.3848
2023-05-12T14:35:03.335Z,13846.3848
2023-05-12T14:36:07.831Z,13854.3848
2023-05-12T14:37:07.283Z,13848.0771
2023-05-12T14:38:09.106Z,13845.1543
2023-05-12T14:39:11.028Z,13848.3848
2023-05-12T14:40:12.924Z,13856.4619
2023-05-12T14:41:14.858Z,13851.5381
2023-05-12T14:42:16.870Z,13850.3076
2023-05-12T14:43:18.700Z,13848.7695
2023-05-12T14:44:20.625Z,13847.0000
2023-05-12T14:45:22.848Z,13844.3848
2023-05-12T14:46:24.472Z,13850.5381
2023-05-12T14:47:26.383Z,13846.9229
2023-05-12T14:48:28.385Z,13847.2305
2023-05-12T14:49:30.241Z,13844.1543
2023-05-12T14:50:32.135Z,13845.0771
2023-05-12T14:51:34.042Z,13842.9229
2023-05-12T14:52:35.956Z,13843.6152
2023-05-12T14:53:37.976Z,13847.6152
2023-05-12T14:54:39.812Z,13846.6152
2023-05-12T14:55:41.728Z,13847.0000
2023-05-12T14:56:43.671Z,13840.1543
2023-05-12T14:57:45.552Z,13844.2305
2023-05-12T14:58:47.474Z,13841.7695
2023-05-12T14:59:49.503Z,13844.5381
2023-05-12T15:00:51.354Z,13841.2305
2023-05-12T15:01:53.247Z,13845.7695
2023-05-12T15:02:55.233Z,13845.6924
2023-05-12T15:03:57.068Z,13852.2305
2023-05-12T15:04:59.097Z,13852.6924
2023-05-12T15:07:02.845Z,13855.3848
2023-05-12T15:08:04.761Z,13858.1543
2023-05-12T15:09:06.681Z,13858.9229
2023-05-12T15:10:08.599Z,13865.8457
2023-05-12T15:11:10.605Z,13862.1543
2023-05-12T15:12:12.467Z,13867.3848
2023-05-12T15:13:14.365Z,13871.9229
2023-05-12T15:14:16.291Z,13874.3076
2023-05-12T15:15:18.355Z,13876.3848
2023-05-12T15:16:20.265Z,13871.7695
2023-05-12T15:17:22.057Z,13874.5381
2023-05-12T15:18:24.058Z,13884.2305
2023-05-12T15:19:25.904Z,13879.4619
2023-05-12T15:20:27.814Z,13880.3076
2023-05-12T15:21:29.744Z,13882.6152
2023-05-12T15:22:31.669Z,13883.2305
2023-05-12T15:23:33.576Z,13885.8457
2023-05-12T15:24:35.482Z,13886.7695
2023-05-12T15:25:37.409Z,13891.8457
2023-05-12T15:26:40.249Z,13893.1543
2023-05-12T15:27:41.254Z,13885.9229
2023-05-12T15:28:43.178Z,13888.9229
2023-05-12T15:29:45.079Z,13889.0771
2023-05-12T15:30:47.025Z,13886.6152
2023-05-12T15:31:49.028Z,13887.5381
2023-05-12T15:32:50.881Z,13892.9229
2023-05-12T15:33:52.794Z,13895.5381
2023-05-12T15:34:54.762Z,13894.0000
2023-05-12T15:35:56.604Z,13894.0771
2023-05-12T15:36:58.541Z,13893.8457
2023-05-12T15:38:00.466Z,13893.2305
2023-05-12T15:39:02.427Z,13891.1543
2023-05-12T15:40:04.313Z,13885.3848
2023-05-12T15:41:06.216Z,13882.8457
2023-05-12T15:42:08.539Z,13890.9229
2023-05-12T15:43:10.054Z,13887.1543
2023-05-12T15:44:11.969Z,13883.5381
2023-05-12T15:45:13.899Z,13882.8457
2023-05-12T15:46:15.835Z,13884.5381
2023-05-12T15:47:17.721Z,13882.3076
2023-05-12T15:48:19.691Z,13880.1543
2023-05-12T15:49:21.639Z,13887.6924
2023-05-12T15:50:23.550Z,13884.3848
2023-05-12T15:51:25.485Z,13881.7695
2023-05-12T15:52:27.405Z,13883.8457
2023-05-12T15:53:29.322Z,13883.8457
2023-05-12T15:54:31.264Z,13884.3848
2023-05-12T15:55:33.169Z,13883.0771
2023-05-12T15:56:35.087Z,13882.6924
2023-05-12T15:57:36.998Z,13877.7695
2023-05-12T15:58:38.933Z,13881.4619
2023-05-12T15:59:40.859Z,13880.8457
2023-05-12T16:00:42.795Z,13878.9229
2023-05-12T16:01:44.683Z,13880.3076
2023-05-12T16:02:46.670Z,13887.9229
2023-05-12T16:03:48.575Z,13883.0771
2023-05-12T16:04:50.462Z,13879.1543
2023-05-12T16:05:52.361Z,13884.0000
2023-05-12T16:06:54.359Z,13882.0771
2023-05-12T16:07:56.188Z,13879.8457
2023-05-12T16:08:58.125Z,13878.0000
2023-05-12T16:10:00.065Z,13877.2305
2023-05-12T16:11:01.990Z,13874.8457
2023-05-12T16:12:03.888Z,13874.1543
2023-05-12T16:13:05.789Z,13874.3076
2023-05-12T16:14:07.711Z,13876.6924
2023-05-12T16:15:09.659Z,13879.2305
2023-05-12T16:16:11.572Z,13874.7695
2023-05-12T16:17:13.491Z,13878.0771
2023-05-12T16:18:15.450Z,13882.6152
2023-05-12T16:19:17.314Z,13876.6924
2023-05-12T16:20:19.248Z,13878.8457
2023-05-12T16:21:21.170Z,13881.1543
2023-05-12T16:22:23.090Z,13879.1543
2023-05-12T16:23:25.001Z,13874.6152
2023-05-12T16:24:26.911Z,13876.9229
2023-05-12T16:25:28.844Z,13878.1543
2023-05-12T16:26:30.768Z,13875.6152
2023-05-12T16:27:32.681Z,13878.3076
2023-05-12T16:28:34.609Z,13878.6924
2023-05-12T16:29:36.534Z,13879.6924
2023-05-12T16:30:38.458Z,13878.6152
2023-05-12T16:31:40.402Z,13877.0771
2023-05-12T16:32:42.334Z,13875.9229
2023-05-12T16:33:44.217Z,13883.0000
2023-05-12T16:34:46.124Z,13881.2305
2023-05-12T16:35:48.044Z,13881.0000
2023-05-12T16:36:49.964Z,13880.8457
2023-05-12T16:37:51.898Z,13883.2305
2023-05-12T16:38:53.836Z,13885.9229
2023-05-12T16:39:55.728Z,13884.5381
2023-05-12T16:40:57.657Z,13883.3076
2023-05-12T16:41:59.574Z,13882.5381
2023-05-12T16:43:01.505Z,13883.0771
2023-05-12T16:44:03.428Z,13883.8457
2023-05-12T16:45:05.360Z,13886.2305
2023-05-12T16:46:07.281Z,13891.3848
2023-05-12T16:47:09.186Z,13884.3076
2023-05-12T16:48:11.121Z,13882.0771
2023-05-12T16:49:13.039Z,13881.3848
2023-05-12T16:50:14.959Z,13885.2305
2023-05-12T16:51:16.877Z,13879.9229
2023-05-12T16:52:18.792Z,13884.0000
2023-05-12T16:53:20.712Z,13883.1543
2023-05-12T16:54:22.798Z,13883.3848
2023-05-12T16:55:24.538Z,13882.6924
2023-05-12T16:56:26.512Z,13885.1543
2023-05-12T16:57:28.396Z,13880.7695
2023-05-12T16:58:30.316Z,13884.8457
2023-05-12T16:59:32.240Z,13882.0771
2023-05-12T17:00:34.140Z,13884.3848
2023-05-12T17:01:36.169Z,13882.6924
2023-05-12T17:02:38.058Z,13880.6924
2023-05-12T17:03:40.030Z,13882.2305
2023-05-12T17:04:41.808Z,13885.7695
2023-05-12T17:05:43.730Z,13884.1543
2023-05-12T17:06:45.654Z,13885.6152
2023-05-12T17:07:47.622Z,13886.4619
2023-05-12T17:08:49.518Z,13883.3076
2023-05-12T17:09:51.426Z,13887.3848
2023-05-12T17:10:53.342Z,13888.7695
2023-05-12T17:11:55.251Z,13885.3848
2023-05-12T17:12:57.185Z,13883.6152
2023-05-12T17:13:59.119Z,13884.5381
2023-05-12T17:15:07.638Z,13890.0771
2023-05-12T17:16:02.972Z,13891.6924
2023-05-12T17:17:04.886Z,13891.5381
2023-05-12T17:18:06.884Z,13882.3848
2023-05-12T17:20:10.616Z,13885.3848
2023-05-12T17:21:12.542Z,13885.7695
2023-05-12T17:22:14.466Z,13887.6924
2023-05-12T17:23:16.382Z,13887.6152
2023-05-12T17:24:18.294Z,13888.2305
2023-05-12T17:25:20.426Z,13883.9229
2023-05-12T17:26:22.143Z,13888.6152
2023-05-12T17:27:24.067Z,13886.7695
2023-05-12T17:28:25.982Z,13886.1543
2023-05-12T17:29:27.886Z,13885.1543
2023-05-12T17:30:29.804Z,13887.3848
2023-05-12T17:31:31.790Z,13882.6924
2023-05-12T17:32:33.726Z,13884.6924
2023-05-12T17:33:35.578Z,13886.3848
2023-05-12T17:34:37.496Z,13885.3076
2023-05-12T17:35:39.416Z,13883.3848
2023-05-12T17:36:41.324Z,13884.6924
2023-05-12T17:37:43.281Z,13883.2305
2023-05-12T17:38:45.183Z,13883.8457
2023-05-12T17:39:47.084Z,13889.8457
2023-05-12T17:40:49.012Z,13887.6924
2023-05-12T17:41:50.933Z,13891.6152
2023-05-12T17:42:52.966Z,13890.4619
2023-05-12T17:43:54.770Z,13897.6924
2023-05-12T17:44:56.699Z,13893.5381
2023-05-12T17:45:58.599Z,13893.2305
2023-05-12T17:47:00.542Z,13894.7695
2023-05-12T17:48:02.517Z,13890.6152
2023-05-12T17:49:04.371Z,13888.9229
2023-05-12T17:50:06.295Z,13895.6924
2023-05-12T17:51:08.198Z,13896.5381
2023-05-12T17:52:10.117Z,13900.3076
2023-05-12T17:53:12.033Z,13895.0000
2023-05-12T17:54:13.954Z,13898.8457
2023-05-12T17:55:15.873Z,13898.3076
2023-05-12T17:56:17.809Z,13895.6924
2023-05-12T17:57:19.704Z,13894.8457
2023-05-12T17:58:21.628Z,13898.6924
2023-05-12T17:59:23.551Z,13901.0000
2023-05-12T18:00:25.462Z,13894.3076
2023-05-12T18:01:27.469Z,13899.0000
2023-05-12T18:02:29.452Z,13897.7695
2023-05-12T18:03:31.266Z,13899.0000
2023-05-12T18:04:33.153Z,13900.5381
2023-05-12T18:05:36.506Z,13897.1543
2023-05-12T18:06:36.989Z,13893.3076
2023-05-12T18:07:38.908Z,13893.7695
2023-05-12T18:08:40.834Z,13892.6924
2023-05-12T18:09:42.730Z,13892.7695
2023-05-12T18:10:44.663Z,13893.3076
2023-05-12T18:11:46.587Z,13887.7695
2023-05-12T18:12:48.511Z,13892.6152
2023-05-12T18:13:50.403Z,13890.8457
2023-05-12T18:14:52.337Z,13894.6152
2023-05-12T18:15:54.266Z,13888.6924
2023-05-12T18:16:56.230Z,13892.3848
2023-05-12T18:17:58.118Z,13893.3076
2023-05-12T18:19:00.014Z,13889.3848
2023-05-12T18:20:01.920Z,13888.4619
2023-05-12T18:21:03.857Z,13888.4619
2023-05-12T18:22:05.746Z,13889.6152
2023-05-12T18:23:07.685Z,13887.6924
2023-05-12T18:24:09.576Z,13892.5381
2023-05-12T18:25:11.508Z,13890.8457
2023-05-12T18:26:13.464Z,13893.9229
2023-05-12T18:27:15.362Z,13891.1543
2023-05-12T18:28:17.254Z,13889.9229
2023-05-12T18:29:19.170Z,13895.7695
2023-05-12T18:30:21.113Z,13895.9229
2023-05-12T18:31:23.046Z,13895.4619
2023-05-12T18:32:26.312Z,13895.0771
2023-05-12T18:33:26.857Z,13895.6924
2023-05-12T18:34:28.754Z,13892.3848
2023-05-12T18:35:30.676Z,13891.8457
2023-05-12T18:36:32.620Z,13891.5381
2023-05-12T18:37:34.522Z,13892.0000
2023-05-12T18:38:36.454Z,13892.3076
2023-05-12T18:39:38.372Z,13894.0771
2023-05-12T18:40:40.270Z,13893.6924
2023-05-12T18:41:42.180Z,13890.4619
2023-05-12T18:42:44.158Z,13898.3076
2023-05-12T18:43:46.048Z,13893.1543
2023-05-12T18:44:47.943Z,13890.8457
2023-05-12T18:45:49.871Z,13890.6924
2023-05-12T18:46:51.839Z,13891.5381
2023-05-12T18:47:53.716Z,13893.7695
2023-05-12T18:48:55.646Z,13895.1543
2023-05-12T18:49:57.555Z,13890.8457
2023-05-12T18:50:59.463Z,13889.6924
2023-05-12T18:52:01.399Z,13890.3848
2023-05-12T18:53:03.320Z,13889.3848
2023-05-12T18:54:05.235Z,13890.6152
2023-05-12T18:55:07.176Z,13889.6924
2023-05-12T18:56:09.064Z,13893.0000
2023-05-12T18:57:10.993Z,13893.5381
2023-05-12T18:58:12.898Z,13895.6152
2023-05-12T18:59:14.838Z,13892.1543
2023-05-12T19:00:16.758Z,13888.7500
2023-05-12T19:01:18.738Z,13891.9229
2023-05-12T19:02:20.600Z,13889.8457
2023-05-12T19:03:22.503Z,13886.2305
2023-05-12T19:04:24.431Z,13887.3076
2023-05-12T19:05:26.387Z,13888.6152
2023-05-12T19:06:28.281Z,13890.6152
2023-05-12T19:07:30.216Z,13891.4619
2023-05-12T19:08:32.103Z,13891.5381
2023-05-12T19:09:34.027Z,13887.2305
2023-05-12T19:10:38.611Z,13885.7695
2023-05-12T19:11:37.874Z,13883.0000
2023-05-12T19:12:39.805Z,13884.6152
2023-05-12T19:13:41.718Z,13889.0771
2023-05-12T19:14:43.629Z,13886.3076
2023-05-12T19:15:45.596Z,13884.9229
2023-05-12T19:16:47.544Z,13887.6152
2023-05-12T19:17:49.420Z,13886.5381
2023-05-12T19:18:51.400Z,13887.9229
2023-05-12T19:19:53.235Z,13885.3848
2023-05-12T19:20:55.139Z,13886.7695
2023-05-12T19:21:57.060Z,13885.8457
2023-05-12T19:22:58.998Z,13884.3848
2023-05-12T19:24:00.905Z,13885.8457
2023-05-12T19:25:02.825Z,13885.5381
2023-05-12T19:26:04.724Z,13887.5381
2023-05-12T19:27:06.640Z,13883.6152
2023-05-12T19:28:08.607Z,13885.1543
2023-05-12T19:29:10.514Z,13880.9229
2023-05-12T19:30:12.415Z,13879.6924
2023-05-12T19:31:14.323Z,13882.0000
2023-05-12T19:32:16.339Z,13879.6924
2023-05-12T19:33:18.199Z,13878.6152
2023-05-12T19:34:20.100Z,13885.3076
2023-05-12T19:35:22.205Z,13882.6152
2023-05-12T19:36:23.925Z,13885.3848
2023-05-12T19:37:25.849Z,13880.0000
2023-05-12T19:38:27.741Z,13886.3076
2023-05-12T19:39:29.677Z,13880.9229
2023-05-12T19:40:31.711Z,13878.9229
2023-05-12T19:41:33.510Z,13877.8457
2023-05-12T19:42:35.414Z,13877.4619
2023-05-12T19:43:37.337Z,13878.8457
2023-05-12T19:44:39.285Z,13880.3848
2023-05-12T19:45:41.200Z,13879.3076
2023-05-12T19:46:43.103Z,13877.0771
2023-05-12T19:47:45.020Z,13881.6152
2023-05-12T19:48:46.922Z,13877.0771
2023-05-12T19:49:48.854Z,13874.1543
2023-05-12T19:50:50.786Z,13874.3076
2023-05-12T19:51:52.689Z,13877.6152
2023-05-12T19:52:54.606Z,13881.6152
2023-05-12T19:53:56.605Z,13879.2305
2023-05-12T19:54:58.511Z,13877.0000
2023-05-12T19:56:00.456Z,13879.4619
2023-05-12T19:57:02.385Z,13878.5381
2023-05-12T19:58:04.291Z,13877.3076
2023-05-12T19:59:06.207Z,13878.6152
2023-05-12T20:00:08.120Z,13876.1543
2023-05-12T20:01:10.054Z,13876.9229
2023-05-12T20:02:11.970Z,13875.3076
2023-05-12T20:03:13.918Z,13875.1543
2023-05-12T20:04:15.790Z,13876.3076
2023-05-12T20:05:17.765Z,13876.0000
2023-05-12T20:06:19.621Z,13878.9229
2023-05-12T20:07:21.548Z,13874.0771
2023-05-12T20:08:23.475Z,13878.0771
2023-05-12T20:09:25.372Z,13873.3848
2023-05-12T20:10:27.302Z,13875.3076
2023-05-12T20:11:29.200Z,13873.2305
2023-05-12T20:12:31.140Z,13875.7695
2023-05-12T20:13:33.056Z,13878.8457
2023-05-12T20:14:34.978Z,13876.3848
2023-05-12T20:15:36.874Z,13874.2305
2023-05-12T20:16:38.820Z,13876.0000
2023-05-12T20:17:40.803Z,13875.2305
2023-05-12T20:18:42.676Z,13872.6152
2023-05-12T20:19:44.556Z,13878.3076
2023-05-12T20:20:46.461Z,13877.7695
2023-05-12T20:21:48.382Z,13876.6924
2023-05-12T20:22:50.308Z,13876.5381
2023-05-12T20:23:52.230Z,13879.6152
2023-05-12T20:24:54.149Z,13879.0000
2023-05-12T20:25:56.082Z,13879.6924
2023-05-12T20:26:57.966Z,13879.0000
2023-05-12T20:27:59.919Z,13880.6924
2023-05-12T20:29:01.835Z,13884.4619
2023-05-12T20:30:03.736Z,13882.0771
2023-05-12T20:31:05.778Z,13878.2305
2023-05-12T20:32:07.570Z,13880.2305
2023-05-12T20:33:09.500Z,13877.8457
2023-05-12T20:34:11.405Z,13880.8457
2023-05-12T20:35:13.327Z,13873.0000
2023-05-12T20:36:15.224Z,13875.5381
2023-05-12T20:37:17.156Z,13876.5381
2023-05-12T20:38:19.066Z,13870.9229
2023-05-12T20:39:20.983Z,13876.4619
2023-05-12T20:40:22.903Z,13873.0000
2023-05-12T20:41:24.806Z,13876.7695
2023-05-12T20:42:26.733Z,13880.1543
2023-05-12T20:43:28.650Z,13876.3848
2023-05-12T20:44:30.571Z,13875.4619
2023-05-12T20:45:32.473Z,13878.6924
2023-05-12T20:46:36.437Z,13876.6152
2023-05-12T20:47:36.456Z,13872.0000
2023-05-12T20:48:38.229Z,13873.7695
2023-05-12T20:49:40.149Z,13874.0000
2023-05-12T20:50:42.084Z,13882.0000
2023-05-12T20:51:43.967Z,13878.9229
2023-05-12T20:52:45.904Z,13877.1543
2023-05-12T20:53:47.794Z,13882.3076
2023-05-12T20:54:49.718Z,13880.0000
2023-05-12T20:55:51.633Z,13879.6152
2023-05-12T20:56:53.562Z,13878.9229
2023-05-12T20:57:55.471Z,13882.6924
2023-05-12T20:58:57.377Z,13876.7695
2023-05-12T20:59:59.298Z,13878.5381
2023-05-12T21:01:01.229Z,13881.0000
2023-05-12T21:02:03.207Z,13877.8457
2023-05-12T21:03:12.216Z,13876.8457
2023-05-12T21:04:16.527Z,13878.8574
2023-05-12T21:05:18.620Z,13879.7695
2023-05-12T21:06:20.348Z,13879.7695
2023-05-12T21:07:22.262Z,13880.7695
2023-05-12T21:08:24.159Z,13880.8457
2023-05-12T21:09:26.104Z,13877.8457
2023-05-12T21:10:28.002Z,13873.0000
2023-05-12T21:11:29.905Z,13879.1543
2023-05-12T21:12:31.835Z,13874.3076
2023-05-12T21:13:33.772Z,13871.6924
2023-05-12T21:14:35.670Z,13872.9229
2023-05-12T21:15:37.581Z,13874.6924
2023-05-12T21:16:39.634Z,13874.4619
2023-05-12T21:17:41.566Z,13872.9229
2023-05-12T21:18:43.385Z,13869.7695
2023-05-12T21:19:45.276Z,13876.4619
2023-05-12T21:20:47.240Z,13874.9229
2023-05-12T21:21:49.097Z,13873.9229
2023-05-12T21:22:51.025Z,13873.4619
2023-05-12T21:23:52.996Z,13875.2305
2023-05-12T21:24:54.850Z,13876.7695
2023-05-12T21:25:56.770Z,13879.3848
2023-05-12T21:26:58.704Z,13878.4619
2023-05-12T21:28:00.605Z,13881.0771
2023-05-12T21:29:02.572Z,13877.3848
2023-05-12T21:30:04.457Z,13880.0000
2023-05-12T21:31:06.355Z,13879.0000
2023-05-12T21:32:08.599Z,13878.0000
2023-05-12T21:33:10.286Z,13877.2305
2023-05-12T21:34:12.178Z,13876.3076
2023-05-12T21:35:14.033Z,13873.1543
2023-05-12T21:36:15.965Z,13873.3848
2023-05-12T21:37:17.869Z,13874.3076
2023-05-12T21:38:19.804Z,13874.5381
2023-05-12T21:39:21.728Z,13873.6152
2023-05-12T21:40:23.706Z,13872.5381
2023-05-12T21:41:25.548Z,13871.6152
2023-05-12T21:42:27.496Z,13879.6924
2023-05-12T21:43:29.406Z,13875.4619
2023-05-12T21:44:31.332Z,13877.3848
2023-05-12T21:45:33.244Z,13875.2305
2023-05-12T21:46:35.271Z,13877.9229
2023-05-12T21:47:37.114Z,13875.7695
2023-05-12T21:48:38.984Z,13876.3848
2023-05-12T21:49:40.918Z,13873.6924
2023-05-12T21:50:42.835Z,13874.2305
2023-05-12T21:51:44.751Z,13873.7695
2023-05-12T21:52:46.705Z,13873.0771
2023-05-12T21:53:48.593Z,13874.0000
2023-05-12T21:54:50.525Z,13871.2305
2023-05-12T21:55:52.428Z,13870.3848
2023-05-12T21:56:54.346Z,13874.2305
2023-05-12T21:57:56.253Z,13874.0000
2023-05-12T21:58:58.218Z,13872.0000
2023-05-12T22:00:00.126Z,13873.1543
2023-05-12T22:01:02.021Z,13873.3848
2023-05-12T22:02:03.948Z,13872.2305
2023-05-12T22:03:05.896Z,13871.0771
2023-05-12T22:04:07.817Z,13872.9229
2023-05-12T22:05:09.758Z,13872.9229
2023-05-12T22:06:11.623Z,13871.7695
2023-05-12T22:07:13.517Z,13871.4619
2023-05-12T22:08:15.447Z,13870.3076
2023-05-12T22:09:17.361Z,13872.2305
2023-05-12T22:10:19.452Z,13872.3076
2023-05-12T22:11:21.229Z,13872.0771
2023-05-12T22:12:23.116Z,13867.9229
2023-05-12T22:13:25.023Z,13867.0771
2023-05-12T22:14:26.936Z,13868.5381
2023-05-12T22:15:28.870Z,13871.0771
2023-05-12T22:16:40.680Z,13870.1543
2023-05-12T22:17:32.750Z,13868.9170
2023-05-12T22:18:34.679Z,13870.2305
2023-05-12T22:19:36.536Z,13866.9229
2023-05-12T22:20:38.453Z,13866.2305
2023-05-12T22:21:40.379Z,13864.6152
2023-05-12T22:22:42.339Z,13868.6152
2023-05-12T22:23:44.220Z,13865.0771
2023-05-12T22:24:46.134Z,13867.7695
2023-05-12T22:25:48.032Z,13870.0771
2023-05-12T22:26:49.970Z,13864.5381
2023-05-12T22:27:51.871Z,13863.3076
2023-05-12T22:28:53.836Z,13869.5381
2023-05-12T22:29:55.721Z,13866.6924
2023-05-12T22:30:57.665Z,13866.3848
2023-05-12T22:31:59.551Z,13867.0771
2023-05-12T22:33:01.584Z,13870.4619
2023-05-12T22:34:03.384Z,13868.3076
2023-05-12T22:35:05.339Z,13863.9229
2023-05-12T22:36:07.243Z,13866.6152
2023-05-12T22:37:09.146Z,13869.2305
2023-05-12T22:38:11.094Z,13872.0771
2023-05-12T22:39:13.001Z,13866.8457
2023-05-12T22:40:14.905Z,13869.9229
2023-05-12T22:41:16.825Z,13869.0000
2023-05-12T22:42:18.763Z,13868.9229
2023-05-12T22:43:20.659Z,13867.7695
2023-05-12T22:44:22.596Z,13868.6924
2023-05-12T22:45:24.520Z,13869.5381
2023-05-12T22:46:26.480Z,13865.3848
2023-05-12T22:47:28.348Z,13867.2305
2023-05-12T22:48:32.099Z,13869.9229
2023-05-12T22:49:32.191Z,13867.3330
2023-05-12T22:50:34.098Z,13868.8457
2023-05-12T22:51:36.025Z,13867.4619
2023-05-12T22:52:37.944Z,13872.0771
2023-05-12T22:53:39.864Z,13871.9229
2023-05-12T22:54:41.781Z,13872.6152
2023-05-12T22:55:43.701Z,13869.5381
2023-05-12T22:56:45.629Z,13868.1543
2023-05-12T22:57:47.538Z,13873.6152
2023-05-12T22:58:49.470Z,13876.6924
2023-05-12T22:59:51.371Z,13870.7695
2023-05-12T23:00:53.330Z,13868.0000
2023-05-12T23:01:55.221Z,13870.5381
2023-05-12T23:02:57.191Z,13871.5381
2023-05-12T23:03:59.068Z,13871.0771
2023-05-12T23:05:00.963Z,13870.6924
2023-05-12T23:06:02.908Z,13869.1543
2023-05-12T23:07:05.903Z,13870.3848
2023-05-12T23:08:06.764Z,13865.3076
2023-05-12T23:09:08.635Z,13869.9229
2023-05-12T23:10:10.578Z,13869.8457